sensor_id;sensor_type;location;lat;lon;timestamp;P1;durP1;ratioP1;P2;durP2;ratioP2
65822;SDS011;52585;47.566;19.056;2023-03-01T00:01:15;13.00;;;9.80;;
65822;SDS011;52585;47.566;19.056;2023-03-01T00:03:46;14.30;;;9.80;;
65822;SDS011;52585;47.566;19.056;2023-03-01T00:06:12;14.50;;;10.10;;
65822;SDS011;52585;47.566;19.056;2023-03-01T00:08:38;15.90;;;10.80;;
65822;SDS011;52585;47.566;19.056;2023-03-01T00:11:07;14.90;;;10.20;;
65822;SDS011;52585;47.566;19.056;2023-03-01T00:13:36;16.60;;;10.60;;
65822;SDS011;52585;47.566;19.056;2023-03-01T00:16:03;16.60;;;10.60;;
65822;SDS011;52585;47.566;19.056;2023-03-01T00:18:31;16.30;;;10.10;;
65822;SDS011;52585;47.566;19.056;2023-03-01T00:20:57;14.60;;;10.50;;
65822;SDS011;52585;47.566;19.056;2023-03-01T00:23:23;13.60;;;9.60;;
65822;SDS011;52585;47.566;19.056;2023-03-01T00:25:49;14.00;;;10.30;;
65822;SDS011;52585;47.566;19.056;2023-03-01T00:28:16;16.30;;;10.90;;
65822;SDS011;52585;47.566;19.056;2023-03-01T00:30:42;18.90;;;10.50;;
65822;SDS011;52585;47.566;19.056;2023-03-01T00:33:08;13.20;;;9.90;;
65822;SDS011;52585;47.566;19.056;2023-03-01T00:35:34;13.60;;;10.20;;
65822;SDS011;52585;47.566;19.056;2023-03-01T00:38:01;13.60;;;9.90;;
65822;SDS011;52585;47.566;19.056;2023-03-01T00:40:29;12.70;;;9.60;;
65822;SDS011;52585;47.566;19.056;2023-03-01T00:42:57;11.90;;;9.30;;
65822;SDS011;52585;47.566;19.056;2023-03-01T00:45:23;13.90;;;9.50;;
65822;SDS011;52585;47.566;19.056;2023-03-01T00:47:50;13.80;;;9.80;;
65822;SDS011;52585;47.566;19.056;2023-03-01T00:50:17;12.10;;;9.10;;
65822;SDS011;52585;47.566;19.056;2023-03-01T00:52:43;13.00;;;8.90;;
65822;SDS011;52585;47.566;19.056;2023-03-01T00:55:09;12.80;;;9.20;;
65822;SDS011;52585;47.566;19.056;2023-03-01T00:57:36;13.40;;;10.30;;
65822;SDS011;52585;47.566;19.056;2023-03-01T01:00:04;12.60;;;9.60;;
65822;SDS011;52585;47.566;19.056;2023-03-01T01:02:34;14.30;;;9.10;;
65822;SDS011;52585;47.566;19.056;2023-03-01T01:05:00;11.70;;;9.20;;
65822;SDS011;52585;47.566;19.056;2023-03-01T01:07:26;11.60;;;8.90;;
65822;SDS011;52585;47.566;19.056;2023-03-01T01:09:52;10.40;;;8.30;;
65822;SDS011;52585;47.566;19.056;2023-03-01T01:12:17;12.30;;;9.00;;
65822;SDS011;52585;47.566;19.056;2023-03-01T01:14:43;12.10;;;8.90;;
65822;SDS011;52585;47.566;19.056;2023-03-01T01:17:08;11.60;;;8.50;;
65822;SDS011;52585;47.566;19.056;2023-03-01T01:19:34;12.00;;;9.10;;
65822;SDS011;52585;47.566;19.056;2023-03-01T01:22:00;12.60;;;8.50;;
65822;SDS011;52585;47.566;19.056;2023-03-01T01:24:26;11.00;;;8.50;;
65822;SDS011;52585;47.566;19.056;2023-03-01T01:26:52;11.50;;;8.40;;
65822;SDS011;52585;47.566;19.056;2023-03-01T01:29:17;11.90;;;8.70;;
65822;SDS011;52585;47.566;19.056;2023-03-01T01:31:43;12.90;;;9.60;;
65822;SDS011;52585;47.566;19.056;2023-03-01T01:34:15;12.70;;;9.50;;
65822;SDS011;52585;47.566;19.056;2023-03-01T01:36:42;10.40;;;8.20;;
65822;SDS011;52585;47.566;19.056;2023-03-01T01:39:09;11.50;;;8.70;;
65822;SDS011;52585;47.566;19.056;2023-03-01T01:41:40;11.90;;;8.60;;
65822;SDS011;52585;47.566;19.056;2023-03-01T01:44:21;12.90;;;8.80;;
65822;SDS011;52585;47.566;19.056;2023-03-01T01:55:03;9.40;;;7.30;;
65822;SDS011;52585;47.566;19.056;2023-03-01T01:57:54;10.20;;;7.80;;
65822;SDS011;52585;47.566;19.056;2023-03-01T02:00:27;11.10;;;7.90;;
65822;SDS011;52585;47.566;19.056;2023-03-01T02:02:57;10.40;;;7.70;;
65822;SDS011;52585;47.566;19.056;2023-03-01T02:05:37;9.90;;;8.20;;
65822;SDS011;52585;47.566;19.056;2023-03-01T02:08:04;11.70;;;8.30;;
65822;SDS011;52585;47.566;19.056;2023-03-01T02:10:33;11.80;;;7.20;;
65822;SDS011;52585;47.566;19.056;2023-03-01T02:13:01;10.50;;;7.60;;
65822;SDS011;52585;47.566;19.056;2023-03-01T02:15:33;9.40;;;7.60;;
65822;SDS011;52585;47.566;19.056;2023-03-01T02:18:01;9.60;;;7.40;;
65822;SDS011;52585;47.566;19.056;2023-03-01T02:23:18;8.00;;;6.70;;
65822;SDS011;52585;47.566;19.056;2023-03-01T02:28:32;10.60;;;7.70;;
65822;SDS011;52585;47.566;19.056;2023-03-01T02:30:58;10.40;;;7.80;;
65822;SDS011;52585;47.566;19.056;2023-03-01T02:33:57;9.30;;;6.90;;
65822;SDS011;52585;47.566;19.056;2023-03-01T02:36:28;9.80;;;7.30;;
65822;SDS011;52585;47.566;19.056;2023-03-01T02:38:58;9.80;;;7.80;;
65822;SDS011;52585;47.566;19.056;2023-03-01T02:41:28;9.20;;;7.40;;
65822;SDS011;52585;47.566;19.056;2023-03-01T02:43:57;8.90;;;7.50;;
65822;SDS011;52585;47.566;19.056;2023-03-01T02:46:25;9.90;;;7.80;;
65822;SDS011;52585;47.566;19.056;2023-03-01T02:48:53;10.60;;;7.50;;
65822;SDS011;52585;47.566;19.056;2023-03-01T02:56:48;9.10;;;6.70;;
65822;SDS011;52585;47.566;19.056;2023-03-01T02:59:16;8.60;;;6.80;;
65822;SDS011;52585;47.566;19.056;2023-03-01T03:01:45;7.20;;;5.90;;
65822;SDS011;52585;47.566;19.056;2023-03-01T03:04:15;8.30;;;6.80;;
65822;SDS011;52585;47.566;19.056;2023-03-01T03:06:48;8.10;;;6.30;;
65822;SDS011;52585;47.566;19.056;2023-03-01T03:09:15;6.80;;;6.00;;
65822;SDS011;52585;47.566;19.056;2023-03-01T03:11:43;8.50;;;6.60;;
65822;SDS011;52585;47.566;19.056;2023-03-01T03:14:11;9.30;;;6.40;;
65822;SDS011;52585;47.566;19.056;2023-03-01T03:16:44;9.80;;;6.30;;
65822;SDS011;52585;47.566;19.056;2023-03-01T03:19:12;6.90;;;5.90;;
65822;SDS011;52585;47.566;19.056;2023-03-01T03:21:38;9.00;;;6.20;;
65822;SDS011;52585;47.566;19.056;2023-03-01T03:24:04;8.00;;;6.20;;
65822;SDS011;52585;47.566;19.056;2023-03-01T03:26:31;8.80;;;6.40;;
65822;SDS011;52585;47.566;19.056;2023-03-01T03:28:56;7.50;;;6.40;;
65822;SDS011;52585;47.566;19.056;2023-03-01T03:31:22;8.30;;;6.20;;
65822;SDS011;52585;47.566;19.056;2023-03-01T03:33:48;9.20;;;6.00;;
65822;SDS011;52585;47.566;19.056;2023-03-01T03:36:19;6.20;;;5.60;;
65822;SDS011;52585;47.566;19.056;2023-03-01T03:38:47;8.20;;;6.30;;
65822;SDS011;52585;47.566;19.056;2023-03-01T03:41:15;8.50;;;6.60;;
65822;SDS011;52585;47.566;19.056;2023-03-01T03:43:41;7.80;;;6.50;;
65822;SDS011;52585;47.566;19.056;2023-03-01T03:46:10;9.20;;;6.50;;
65822;SDS011;52585;47.566;19.056;2023-03-01T03:48:41;7.60;;;6.40;;
65822;SDS011;52585;47.566;19.056;2023-03-01T03:51:14;8.30;;;6.00;;
65822;SDS011;52585;47.566;19.056;2023-03-01T03:53:41;9.50;;;5.80;;
65822;SDS011;52585;47.566;19.056;2023-03-01T03:56:07;10.40;;;6.20;;
65822;SDS011;52585;47.566;19.056;2023-03-01T03:58:34;7.70;;;6.30;;
65822;SDS011;52585;47.566;19.056;2023-03-01T04:01:00;9.20;;;6.50;;
65822;SDS011;52585;47.566;19.056;2023-03-01T04:03:27;8.50;;;6.40;;
65822;SDS011;52585;47.566;19.056;2023-03-01T04:05:54;9.70;;;6.90;;
65822;SDS011;52585;47.566;19.056;2023-03-01T04:08:23;8.20;;;6.10;;
65822;SDS011;52585;47.566;19.056;2023-03-01T04:10:51;8.10;;;6.40;;
65822;SDS011;52585;47.566;19.056;2023-03-01T04:13:22;8.10;;;6.10;;
65822;SDS011;52585;47.566;19.056;2023-03-01T04:15:51;7.90;;;6.20;;
65822;SDS011;52585;47.566;19.056;2023-03-01T04:18:20;9.40;;;5.60;;
65822;SDS011;52585;47.566;19.056;2023-03-01T04:20:48;10.70;;;6.40;;
65822;SDS011;52585;47.566;19.056;2023-03-01T04:23:17;8.60;;;6.00;;
65822;SDS011;52585;47.566;19.056;2023-03-01T04:28:22;8.80;;;6.30;;
65822;SDS011;52585;47.566;19.056;2023-03-01T04:30:54;8.60;;;6.30;;
65822;SDS011;52585;47.566;19.056;2023-03-01T04:33:21;9.00;;;6.30;;
65822;SDS011;52585;47.566;19.056;2023-03-01T04:35:47;9.50;;;6.80;;
65822;SDS011;52585;47.566;19.056;2023-03-01T04:38:15;7.60;;;6.00;;
65822;SDS011;52585;47.566;19.056;2023-03-01T04:40:41;8.10;;;6.30;;
65822;SDS011;52585;47.566;19.056;2023-03-01T04:43:11;9.00;;;6.30;;
65822;SDS011;52585;47.566;19.056;2023-03-01T04:45:40;8.40;;;6.60;;
65822;SDS011;52585;47.566;19.056;2023-03-01T04:48:06;9.70;;;6.90;;
65822;SDS011;52585;47.566;19.056;2023-03-01T04:50:32;8.30;;;6.40;;
65822;SDS011;52585;47.566;19.056;2023-03-01T04:52:58;11.30;;;6.90;;
65822;SDS011;52585;47.566;19.056;2023-03-01T04:55:26;8.70;;;6.80;;
65822;SDS011;52585;47.566;19.056;2023-03-01T04:57:52;7.60;;;6.50;;
65822;SDS011;52585;47.566;19.056;2023-03-01T05:00:19;9.40;;;7.30;;
65822;SDS011;52585;47.566;19.056;2023-03-01T05:02:57;11.10;;;6.50;;
65822;SDS011;52585;47.566;19.056;2023-03-01T05:05:28;9.00;;;7.00;;
65822;SDS011;52585;47.566;19.056;2023-03-01T05:08:03;10.70;;;7.50;;
65822;SDS011;52585;47.566;19.056;2023-03-01T05:10:32;8.40;;;7.30;;
65822;SDS011;52585;47.566;19.056;2023-03-01T05:13:01;8.80;;;6.50;;
65822;SDS011;52585;47.566;19.056;2023-03-01T05:15:29;8.20;;;6.50;;
65822;SDS011;52585;47.566;19.056;2023-03-01T05:17:58;8.90;;;7.20;;
65822;SDS011;52585;47.566;19.056;2023-03-01T05:20:29;8.20;;;6.70;;
65822;SDS011;52585;47.566;19.056;2023-03-01T05:22:59;8.20;;;6.90;;
65822;SDS011;52585;47.566;19.056;2023-03-01T05:25:26;7.60;;;6.90;;
65822;SDS011;52585;47.566;19.056;2023-03-01T05:28:00;7.70;;;6.60;;
65822;SDS011;52585;47.566;19.056;2023-03-01T05:30:33;9.60;;;7.10;;
65822;SDS011;52585;47.566;19.056;2023-03-01T05:33:00;7.60;;;6.60;;
65822;SDS011;52585;47.566;19.056;2023-03-01T05:35:26;8.10;;;6.50;;
65822;SDS011;52585;47.566;19.056;2023-03-01T05:37:51;8.80;;;7.10;;
65822;SDS011;52585;47.566;19.056;2023-03-01T05:40:22;7.80;;;6.20;;
65822;SDS011;52585;47.566;19.056;2023-03-01T05:42:54;9.30;;;7.60;;
65822;SDS011;52585;47.566;19.056;2023-03-01T05:45:23;9.10;;;7.40;;
65822;SDS011;52585;47.566;19.056;2023-03-01T05:47:50;9.40;;;6.70;;
65822;SDS011;52585;47.566;19.056;2023-03-01T05:50:22;7.30;;;6.50;;
65822;SDS011;52585;47.566;19.056;2023-03-01T05:53:01;9.10;;;6.30;;
65822;SDS011;52585;47.566;19.056;2023-03-01T05:55:56;7.70;;;6.20;;
65822;SDS011;52585;47.566;19.056;2023-03-01T05:58:22;9.60;;;6.90;;
65822;SDS011;52585;47.566;19.056;2023-03-01T06:00:48;8.80;;;6.90;;
65822;SDS011;52585;47.566;19.056;2023-03-01T06:03:16;9.30;;;7.20;;
65822;SDS011;52585;47.566;19.056;2023-03-01T06:05:42;10.70;;;6.80;;
65822;SDS011;52585;47.566;19.056;2023-03-01T06:08:10;9.80;;;7.40;;
65822;SDS011;52585;47.566;19.056;2023-03-01T06:10:36;9.30;;;6.40;;
65822;SDS011;52585;47.566;19.056;2023-03-01T06:13:02;9.50;;;6.70;;
65822;SDS011;52585;47.566;19.056;2023-03-01T06:15:28;7.30;;;6.10;;
65822;SDS011;52585;47.566;19.056;2023-03-01T06:17:55;11.30;;;6.70;;
65822;SDS011;52585;47.566;19.056;2023-03-01T06:20:24;8.80;;;6.60;;
65822;SDS011;52585;47.566;19.056;2023-03-01T06:22:51;7.70;;;5.90;;
65822;SDS011;52585;47.566;19.056;2023-03-01T06:25:20;8.10;;;6.90;;
65822;SDS011;52585;47.566;19.056;2023-03-01T06:27:48;9.30;;;6.90;;
65822;SDS011;52585;47.566;19.056;2023-03-01T06:30:16;9.20;;;6.80;;
65822;SDS011;52585;47.566;19.056;2023-03-01T06:32:43;8.80;;;7.30;;
65822;SDS011;52585;47.566;19.056;2023-03-01T06:35:14;8.40;;;6.60;;
65822;SDS011;52585;47.566;19.056;2023-03-01T06:37:45;9.00;;;7.00;;
65822;SDS011;52585;47.566;19.056;2023-03-01T06:40:12;9.10;;;7.10;;
65822;SDS011;52585;47.566;19.056;2023-03-01T06:42:41;14.20;;;8.00;;
65822;SDS011;52585;47.566;19.056;2023-03-01T06:45:09;11.20;;;7.00;;
65822;SDS011;52585;47.566;19.056;2023-03-01T06:47:35;9.20;;;6.70;;
65822;SDS011;52585;47.566;19.056;2023-03-01T06:50:01;9.60;;;7.50;;
65822;SDS011;52585;47.566;19.056;2023-03-01T06:52:29;10.00;;;7.30;;
65822;SDS011;52585;47.566;19.056;2023-03-01T06:54:54;8.50;;;6.90;;
65822;SDS011;52585;47.566;19.056;2023-03-01T06:57:20;9.50;;;7.40;;
65822;SDS011;52585;47.566;19.056;2023-03-01T06:59:46;13.70;;;8.10;;
65822;SDS011;52585;47.566;19.056;2023-03-01T07:02:14;9.80;;;8.00;;
65822;SDS011;52585;47.566;19.056;2023-03-01T07:04:41;10.10;;;7.00;;
65822;SDS011;52585;47.566;19.056;2023-03-01T07:07:07;11.00;;;7.90;;
65822;SDS011;52585;47.566;19.056;2023-03-01T07:09:33;11.90;;;7.10;;
65822;SDS011;52585;47.566;19.056;2023-03-01T07:11:59;9.30;;;7.40;;
65822;SDS011;52585;47.566;19.056;2023-03-01T07:14:25;9.80;;;7.10;;
65822;SDS011;52585;47.566;19.056;2023-03-01T07:16:52;9.90;;;6.90;;
65822;SDS011;52585;47.566;19.056;2023-03-01T07:19:18;10.10;;;7.40;;
65822;SDS011;52585;47.566;19.056;2023-03-01T07:21:43;8.70;;;7.00;;
65822;SDS011;52585;47.566;19.056;2023-03-01T07:24:10;8.90;;;6.80;;
65822;SDS011;52585;47.566;19.056;2023-03-01T07:26:36;10.40;;;7.30;;
65822;SDS011;52585;47.566;19.056;2023-03-01T07:29:04;9.60;;;7.40;;
65822;SDS011;52585;47.566;19.056;2023-03-01T07:31:31;9.30;;;7.20;;
65822;SDS011;52585;47.566;19.056;2023-03-01T07:33:57;9.10;;;7.30;;
65822;SDS011;52585;47.566;19.056;2023-03-01T07:36:23;13.50;;;7.10;;
65822;SDS011;52585;47.566;19.056;2023-03-01T07:38:49;12.10;;;8.90;;
65822;SDS011;52585;47.566;19.056;2023-03-01T07:41:16;12.90;;;8.30;;
65822;SDS011;52585;47.566;19.056;2023-03-01T07:43:42;10.60;;;7.60;;
65822;SDS011;52585;47.566;19.056;2023-03-01T07:46:09;8.80;;;7.40;;
65822;SDS011;52585;47.566;19.056;2023-03-01T07:48:35;7.90;;;7.10;;
65822;SDS011;52585;47.566;19.056;2023-03-01T07:51:02;9.90;;;7.30;;
65822;SDS011;52585;47.566;19.056;2023-03-01T07:53:30;10.40;;;7.60;;
65822;SDS011;52585;47.566;19.056;2023-03-01T07:56:04;11.80;;;7.90;;
65822;SDS011;52585;47.566;19.056;2023-03-01T07:58:36;8.50;;;6.50;;
65822;SDS011;52585;47.566;19.056;2023-03-01T08:01:05;9.70;;;7.50;;
65822;SDS011;52585;47.566;19.056;2023-03-01T08:03:32;9.70;;;7.00;;
65822;SDS011;52585;47.566;19.056;2023-03-01T08:06:00;9.60;;;7.60;;
65822;SDS011;52585;47.566;19.056;2023-03-01T08:08:26;19.90;;;7.90;;
65822;SDS011;52585;47.566;19.056;2023-03-01T08:10:52;9.30;;;7.60;;
65822;SDS011;52585;47.566;19.056;2023-03-01T08:13:21;9.30;;;6.70;;
65822;SDS011;52585;47.566;19.056;2023-03-01T08:15:48;8.60;;;7.00;;
65822;SDS011;52585;47.566;19.056;2023-03-01T08:18:15;7.40;;;6.40;;
65822;SDS011;52585;47.566;19.056;2023-03-01T08:20:42;8.10;;;6.40;;
65822;SDS011;52585;47.566;19.056;2023-03-01T08:23:07;7.50;;;6.50;;
65822;SDS011;52585;47.566;19.056;2023-03-01T08:25:33;8.20;;;6.70;;
65822;SDS011;52585;47.566;19.056;2023-03-01T08:27:58;8.00;;;6.30;;
65822;SDS011;52585;47.566;19.056;2023-03-01T08:30:24;8.00;;;6.10;;
65822;SDS011;52585;47.566;19.056;2023-03-01T08:32:50;8.90;;;6.60;;
65822;SDS011;52585;47.566;19.056;2023-03-01T08:35:16;8.90;;;6.70;;
65822;SDS011;52585;47.566;19.056;2023-03-01T08:37:42;8.60;;;6.50;;
65822;SDS011;52585;47.566;19.056;2023-03-01T08:40:08;8.10;;;6.20;;
65822;SDS011;52585;47.566;19.056;2023-03-01T08:42:36;7.20;;;5.90;;
65822;SDS011;52585;47.566;19.056;2023-03-01T08:45:06;7.40;;;6.10;;
65822;SDS011;52585;47.566;19.056;2023-03-01T08:47:33;6.40;;;5.80;;
65822;SDS011;52585;47.566;19.056;2023-03-01T08:49:59;8.20;;;6.30;;
65822;SDS011;52585;47.566;19.056;2023-03-01T08:52:25;7.90;;;5.90;;
65822;SDS011;52585;47.566;19.056;2023-03-01T08:54:52;5.80;;;5.20;;
65822;SDS011;52585;47.566;19.056;2023-03-01T08:57:18;5.00;;;4.50;;
65822;SDS011;52585;47.566;19.056;2023-03-01T08:59:43;6.20;;;5.20;;
65822;SDS011;52585;47.566;19.056;2023-03-01T09:02:14;5.70;;;5.10;;
65822;SDS011;52585;47.566;19.056;2023-03-01T09:04:42;5.70;;;5.10;;
65822;SDS011;52585;47.566;19.056;2023-03-01T09:07:09;5.80;;;5.00;;
65822;SDS011;52585;47.566;19.056;2023-03-01T09:09:36;5.50;;;5.00;;
65822;SDS011;52585;47.566;19.056;2023-03-01T09:12:03;7.40;;;5.30;;
65822;SDS011;52585;47.566;19.056;2023-03-01T09:14:29;8.40;;;5.30;;
65822;SDS011;52585;47.566;19.056;2023-03-01T09:16:55;7.20;;;5.90;;
65822;SDS011;52585;47.566;19.056;2023-03-01T09:19:21;6.10;;;5.40;;
65822;SDS011;52585;47.566;19.056;2023-03-01T09:21:46;9.00;;;6.40;;
65822;SDS011;52585;47.566;19.056;2023-03-01T09:24:20;8.50;;;5.80;;
65822;SDS011;52585;47.566;19.056;2023-03-01T09:26:47;7.90;;;5.50;;
65822;SDS011;52585;47.566;19.056;2023-03-01T09:29:14;7.50;;;5.70;;
65822;SDS011;52585;47.566;19.056;2023-03-01T09:31:42;6.50;;;5.80;;
65822;SDS011;52585;47.566;19.056;2023-03-01T09:34:09;6.70;;;6.10;;
65822;SDS011;52585;47.566;19.056;2023-03-01T09:36:35;8.40;;;6.50;;
65822;SDS011;52585;47.566;19.056;2023-03-01T09:39:02;10.20;;;6.90;;
65822;SDS011;52585;47.566;19.056;2023-03-01T09:41:57;7.30;;;5.90;;
65822;SDS011;52585;47.566;19.056;2023-03-01T09:46:57;10.50;;;6.40;;
65822;SDS011;52585;47.566;19.056;2023-03-01T09:49:27;7.60;;;5.90;;
65822;SDS011;52585;47.566;19.056;2023-03-01T09:52:03;8.80;;;7.10;;
65822;SDS011;52585;47.566;19.056;2023-03-01T09:54:45;7.60;;;6.20;;
65822;SDS011;52585;47.566;19.056;2023-03-01T09:57:24;10.00;;;7.90;;
65822;SDS011;52585;47.566;19.056;2023-03-01T10:00:03;9.50;;;6.90;;
65822;SDS011;52585;47.566;19.056;2023-03-01T10:02:57;7.80;;;6.30;;
65822;SDS011;52585;47.566;19.056;2023-03-01T10:05:43;7.40;;;6.40;;
65822;SDS011;52585;47.566;19.056;2023-03-01T10:10:55;7.20;;;5.90;;
65822;SDS011;52585;47.566;19.056;2023-03-01T10:13:37;8.10;;;6.70;;
65822;SDS011;52585;47.566;19.056;2023-03-01T10:16:41;8.10;;;6.70;;
65822;SDS011;52585;47.566;19.056;2023-03-01T10:19:41;8.50;;;6.20;;
65822;SDS011;52585;47.566;19.056;2023-03-01T10:22:31;8.50;;;6.30;;
65822;SDS011;52585;47.566;19.056;2023-03-01T10:24:59;8.00;;;6.40;;
65822;SDS011;52585;47.566;19.056;2023-03-01T10:27:39;7.80;;;6.10;;
65822;SDS011;52585;47.566;19.056;2023-03-01T10:30:20;9.40;;;6.50;;
65822;SDS011;52585;47.566;19.056;2023-03-01T10:32:49;6.60;;;5.90;;
65822;SDS011;52585;47.566;19.056;2023-03-01T10:35:26;6.40;;;5.50;;
65822;SDS011;52585;47.566;19.056;2023-03-01T10:40:22;8.60;;;5.90;;
65822;SDS011;52585;47.566;19.056;2023-03-01T10:42:49;13.00;;;5.90;;
65822;SDS011;52585;47.566;19.056;2023-03-01T10:45:17;9.90;;;6.60;;
65822;SDS011;52585;47.566;19.056;2023-03-01T10:48:18;9.20;;;6.50;;
65822;SDS011;52585;47.566;19.056;2023-03-01T10:53:43;7.50;;;6.00;;
65822;SDS011;52585;47.566;19.056;2023-03-01T10:56:15;7.20;;;6.40;;
65822;SDS011;52585;47.566;19.056;2023-03-01T10:59:01;9.10;;;7.00;;
65822;SDS011;52585;47.566;19.056;2023-03-01T11:01:30;8.10;;;6.50;;
65822;SDS011;52585;47.566;19.056;2023-03-01T11:06:33;12.50;;;7.00;;
65822;SDS011;52585;47.566;19.056;2023-03-01T11:09:20;9.80;;;6.50;;
65822;SDS011;52585;47.566;19.056;2023-03-01T11:12:00;7.10;;;6.40;;
65822;SDS011;52585;47.566;19.056;2023-03-01T11:14:28;9.50;;;6.10;;
65822;SDS011;52585;47.566;19.056;2023-03-01T11:17:12;8.40;;;6.10;;
65822;SDS011;52585;47.566;19.056;2023-03-01T11:20:00;7.70;;;6.50;;
65822;SDS011;52585;47.566;19.056;2023-03-01T11:22:50;8.20;;;5.70;;
65822;SDS011;52585;47.566;19.056;2023-03-01T11:25:23;10.80;;;6.10;;
65822;SDS011;52585;47.566;19.056;2023-03-01T11:27:51;7.50;;;6.20;;
65822;SDS011;52585;47.566;19.056;2023-03-01T11:30:32;7.60;;;5.90;;
65822;SDS011;52585;47.566;19.056;2023-03-01T11:33:50;6.80;;;5.90;;
65822;SDS011;52585;47.566;19.056;2023-03-01T11:38:47;8.40;;;5.60;;
65822;SDS011;52585;47.566;19.056;2023-03-01T11:41:19;5.90;;;5.20;;
65822;SDS011;52585;47.566;19.056;2023-03-01T11:43:49;7.50;;;5.50;;
65822;SDS011;52585;47.566;19.056;2023-03-01T11:49:03;9.90;;;5.10;;
65822;SDS011;52585;47.566;19.056;2023-03-01T11:52:22;6.40;;;5.40;;
65822;SDS011;52585;47.566;19.056;2023-03-01T12:01:01;6.90;;;5.30;;
65822;SDS011;52585;47.566;19.056;2023-03-01T12:04:21;6.40;;;4.70;;
65822;SDS011;52585;47.566;19.056;2023-03-01T12:10:16;4.70;;;4.30;;
65822;SDS011;52585;47.566;19.056;2023-03-01T12:16:07;6.10;;;5.10;;
65822;SDS011;52585;47.566;19.056;2023-03-01T12:18:45;5.20;;;4.60;;
65822;SDS011;52585;47.566;19.056;2023-03-01T12:33:09;9.20;;;4.60;;
65822;SDS011;52585;47.566;19.056;2023-03-01T12:45:16;5.80;;;4.50;;
65822;SDS011;52585;47.566;19.056;2023-03-01T12:50:47;5.90;;;4.60;;
65822;SDS011;52585;47.566;19.056;2023-03-01T12:53:22;5.30;;;4.60;;
65822;SDS011;52585;47.566;19.056;2023-03-01T12:56:02;5.30;;;4.20;;
65822;SDS011;52585;47.566;19.056;2023-03-01T13:04:58;3.80;;;3.40;;
65822;SDS011;52585;47.566;19.056;2023-03-01T13:10:51;6.10;;;3.30;;
65822;SDS011;52585;47.566;19.056;2023-03-01T13:15:54;3.00;;;2.70;;
65822;SDS011;52585;47.566;19.056;2023-03-01T13:20:52;3.10;;;2.70;;
65822;SDS011;52585;47.566;19.056;2023-03-01T13:26:09;2.60;;;2.40;;
65822;SDS011;52585;47.566;19.056;2023-03-01T13:33:56;5.70;;;3.00;;
65822;SDS011;52585;47.566;19.056;2023-03-01T13:39:29;3.10;;;2.50;;
65822;SDS011;52585;47.566;19.056;2023-03-01T13:41:59;2.50;;;2.30;;
65822;SDS011;52585;47.566;19.056;2023-03-01T13:44:30;4.80;;;2.80;;
65822;SDS011;52585;47.566;19.056;2023-03-01T13:49:47;4.00;;;2.60;;
65822;SDS011;52585;47.566;19.056;2023-03-01T13:52:42;3.20;;;2.70;;
65822;SDS011;52585;47.566;19.056;2023-03-01T13:55:34;2.90;;;2.40;;
65822;SDS011;52585;47.566;19.056;2023-03-01T13:58:32;4.30;;;3.20;;
65822;SDS011;52585;47.566;19.056;2023-03-01T14:01:06;2.50;;;2.30;;
65822;SDS011;52585;47.566;19.056;2023-03-01T14:03:45;6.60;;;2.70;;
65822;SDS011;52585;47.566;19.056;2023-03-01T14:06:20;3.30;;;2.50;;
65822;SDS011;52585;47.566;19.056;2023-03-01T14:08:52;3.10;;;2.70;;
65822;SDS011;52585;47.566;19.056;2023-03-01T14:20:23;3.50;;;2.60;;
65822;SDS011;52585;47.566;19.056;2023-03-01T14:23:02;3.30;;;2.40;;
65822;SDS011;52585;47.566;19.056;2023-03-01T14:25:37;4.60;;;3.00;;
65822;SDS011;52585;47.566;19.056;2023-03-01T14:28:20;4.40;;;2.60;;
65822;SDS011;52585;47.566;19.056;2023-03-01T14:30:51;3.20;;;2.60;;
65822;SDS011;52585;47.566;19.056;2023-03-01T14:33:24;4.80;;;3.00;;
65822;SDS011;52585;47.566;19.056;2023-03-01T14:36:07;4.70;;;2.90;;
65822;SDS011;52585;47.566;19.056;2023-03-01T14:38:37;4.20;;;2.80;;
65822;SDS011;52585;47.566;19.056;2023-03-01T14:41:14;5.50;;;2.90;;
65822;SDS011;52585;47.566;19.056;2023-03-01T14:44:04;3.10;;;2.80;;
65822;SDS011;52585;47.566;19.056;2023-03-01T14:46:38;4.00;;;3.10;;
65822;SDS011;52585;47.566;19.056;2023-03-01T14:49:09;3.30;;;2.70;;
65822;SDS011;52585;47.566;19.056;2023-03-01T14:51:38;3.90;;;3.40;;
65822;SDS011;52585;47.566;19.056;2023-03-01T14:57:26;6.60;;;2.90;;
65822;SDS011;52585;47.566;19.056;2023-03-01T14:59:55;7.80;;;3.30;;
65822;SDS011;52585;47.566;19.056;2023-03-01T15:02:26;3.40;;;3.10;;
65822;SDS011;52585;47.566;19.056;2023-03-01T15:04:58;3.30;;;3.00;;
65822;SDS011;52585;47.566;19.056;2023-03-01T15:07:33;5.90;;;3.20;;
65822;SDS011;52585;47.566;19.056;2023-03-01T15:10:03;2.80;;;2.40;;
65822;SDS011;52585;47.566;19.056;2023-03-01T15:14:56;3.80;;;2.80;;
65822;SDS011;52585;47.566;19.056;2023-03-01T15:17:36;5.70;;;2.90;;
65822;SDS011;52585;47.566;19.056;2023-03-01T15:20:06;5.10;;;2.90;;
65822;SDS011;52585;47.566;19.056;2023-03-01T15:22:44;5.90;;;3.00;;
65822;SDS011;52585;47.566;19.056;2023-03-01T15:25:22;6.00;;;3.30;;
65822;SDS011;52585;47.566;19.056;2023-03-01T15:27:51;4.50;;;2.80;;
65822;SDS011;52585;47.566;19.056;2023-03-01T15:30:22;3.90;;;2.80;;
65822;SDS011;52585;47.566;19.056;2023-03-01T15:33:31;6.40;;;2.90;;
65822;SDS011;52585;47.566;19.056;2023-03-01T15:36:01;3.50;;;3.00;;
65822;SDS011;52585;47.566;19.056;2023-03-01T15:38:54;4.20;;;2.80;;
65822;SDS011;52585;47.566;19.056;2023-03-01T15:41:25;5.30;;;3.00;;
65822;SDS011;52585;47.566;19.056;2023-03-01T15:43:53;4.10;;;2.90;;
65822;SDS011;52585;47.566;19.056;2023-03-01T15:48:55;3.10;;;2.80;;
65822;SDS011;52585;47.566;19.056;2023-03-01T15:51:42;3.00;;;2.70;;
65822;SDS011;52585;47.566;19.056;2023-03-01T15:54:22;3.80;;;2.90;;
65822;SDS011;52585;47.566;19.056;2023-03-01T15:56:50;3.50;;;2.80;;
65822;SDS011;52585;47.566;19.056;2023-03-01T15:59:16;8.20;;;3.60;;
65822;SDS011;52585;47.566;19.056;2023-03-01T16:01:44;3.50;;;2.90;;
65822;SDS011;52585;47.566;19.056;2023-03-01T16:04:12;5.30;;;3.10;;
65822;SDS011;52585;47.566;19.056;2023-03-01T16:06:49;3.60;;;3.20;;
65822;SDS011;52585;47.566;19.056;2023-03-01T16:09:24;6.40;;;3.20;;
65822;SDS011;52585;47.566;19.056;2023-03-01T16:11:52;6.40;;;2.80;;
65822;SDS011;52585;47.566;19.056;2023-03-01T16:14:19;3.20;;;2.90;;
65822;SDS011;52585;47.566;19.056;2023-03-01T16:16:46;6.10;;;3.00;;
65822;SDS011;52585;47.566;19.056;2023-03-01T16:19:14;5.20;;;3.10;;
65822;SDS011;52585;47.566;19.056;2023-03-01T16:21:40;4.10;;;2.70;;
65822;SDS011;52585;47.566;19.056;2023-03-01T16:24:08;3.10;;;2.80;;
65822;SDS011;52585;47.566;19.056;2023-03-01T16:26:35;8.40;;;2.90;;
65822;SDS011;52585;47.566;19.056;2023-03-01T16:29:02;3.30;;;2.90;;
65822;SDS011;52585;47.566;19.056;2023-03-01T16:31:28;6.00;;;3.00;;
65822;SDS011;52585;47.566;19.056;2023-03-01T16:33:58;5.30;;;2.50;;
65822;SDS011;52585;47.566;19.056;2023-03-01T16:36:26;5.00;;;3.20;;
65822;SDS011;52585;47.566;19.056;2023-03-01T16:38:58;3.50;;;2.90;;
65822;SDS011;52585;47.566;19.056;2023-03-01T16:41:26;5.30;;;2.70;;
65822;SDS011;52585;47.566;19.056;2023-03-01T16:43:53;2.90;;;2.50;;
65822;SDS011;52585;47.566;19.056;2023-03-01T16:46:22;9.80;;;3.10;;
65822;SDS011;52585;47.566;19.056;2023-03-01T16:48:51;4.00;;;3.10;;
65822;SDS011;52585;47.566;19.056;2023-03-01T16:51:18;7.00;;;3.10;;
65822;SDS011;52585;47.566;19.056;2023-03-01T16:53:45;8.10;;;3.30;;
65822;SDS011;52585;47.566;19.056;2023-03-01T16:56:12;6.20;;;3.20;;